createdAt,value
2018-06-10T00:00:17.112Z,20.13
2018-06-10T00:02:45.300Z,24.47
2018-06-10T00:05:13.499Z,19.87
2018-06-10T00:07:41.745Z,28.13
2018-06-10T00:10:09.904Z,18.77
2018-06-10T00:12:38.161Z,28.50
2018-06-10T00:15:07.015Z,23.50
2018-06-10T00:17:35.349Z,29.50
2018-06-10T00:20:03.588Z,35.87
2018-06-10T00:22:31.876Z,25.20
2018-06-10T00:25:00.047Z,22.30
2018-06-10T00:27:28.332Z,18.13
2018-06-10T00:29:56.611Z,34.97
2018-06-10T00:32:24.870Z,32.03
2018-06-10T00:34:53.183Z,26.00
2018-06-10T00:37:21.428Z,26.33
2018-06-10T00:39:49.643Z,36.17
2018-06-10T00:42:17.805Z,24.53
2018-06-10T00:44:46.007Z,38.57
2018-06-10T00:47:14.294Z,25.93
2018-06-10T00:49:42.544Z,28.67
2018-06-10T00:52:10.757Z,21.20
2018-06-10T00:54:38.923Z,20.10
2018-06-10T00:57:07.197Z,17.40
2018-06-10T00:59:35.484Z,21.60
2018-06-10T01:02:03.788Z,21.20
2018-06-10T01:04:31.982Z,20.17
2018-06-10T01:07:00.576Z,21.43
2018-06-10T01:09:28.908Z,26.40
2018-06-10T01:11:57.131Z,26.37
2018-06-10T01:14:25.343Z,34.70
2018-06-10T01:16:53.549Z,22.90
2018-06-10T01:19:21.795Z,23.30
2018-06-10T01:21:50.025Z,26.27
2018-06-10T01:24:18.195Z,26.93
2018-06-10T01:26:50.263Z,35.53
2018-06-10T01:29:19.053Z,51.93
2018-06-10T01:31:47.218Z,27.57
2018-06-10T01:34:15.435Z,58.77
2018-06-10T01:36:43.651Z,41.90
2018-06-10T01:39:11.870Z,20.60
2018-06-10T01:41:40.051Z,51.33
2018-06-10T01:44:08.259Z,38.23
2018-06-10T01:46:36.461Z,36.37
2018-06-10T01:49:04.763Z,32.27
2018-06-10T01:51:32.949Z,24.40
2018-06-10T01:54:01.135Z,25.13
2018-06-10T01:56:29.365Z,38.80
2018-06-10T01:58:57.627Z,22.80
2018-06-10T02:01:25.786Z,31.80
2018-06-10T02:03:53.056Z,30.43
2018-06-10T02:06:21.320Z,25.37
2018-06-10T02:08:49.535Z,29.33
2018-06-10T02:11:17.684Z,26.80
2018-06-10T02:13:46.052Z,30.57
2018-06-10T02:16:14.260Z,27.00
2018-06-10T02:18:42.800Z,26.13
2018-06-10T02:21:11.068Z,28.63
2018-06-10T02:23:39.293Z,27.27
2018-06-10T02:26:07.541Z,23.70
2018-06-10T02:28:35.753Z,26.77
2018-06-10T02:31:03.960Z,23.20
2018-06-10T02:33:32.308Z,22.40
2018-06-10T02:36:00.512Z,23.90
2018-06-10T02:38:28.708Z,25.20
2018-06-10T02:40:56.899Z,24.07
2018-06-10T02:43:25.188Z,26.50
2018-06-10T02:45:53.388Z,21.70
2018-06-10T02:48:21.599Z,21.83
2018-06-10T02:50:49.780Z,24.03
2018-06-10T02:53:17.968Z,28.60
2018-06-10T02:55:46.145Z,24.43
2018-06-10T02:58:14.346Z,23.37
2018-06-10T03:00:42.562Z,23.00
2018-06-10T03:03:10.815Z,26.37
2018-06-10T03:05:39.022Z,22.93
2018-06-10T03:08:07.225Z,29.70
2018-06-10T03:10:35.501Z,24.23
2018-06-10T03:13:03.708Z,24.73
2018-06-10T03:15:31.939Z,28.57
2018-06-10T03:18:00.156Z,27.27
2018-06-10T03:20:28.409Z,24.80
2018-06-10T03:22:56.572Z,21.80
2018-06-10T03:25:24.756Z,20.37
2018-06-10T03:27:52.993Z,24.80
2018-06-10T03:30:21.205Z,24.90
2018-06-10T03:32:49.399Z,24.10
2018-06-10T03:35:17.646Z,21.80
2018-06-10T03:37:46.004Z,22.67
2018-06-10T03:40:14.270Z,26.83
2018-06-10T03:42:42.479Z,25.57
2018-06-10T03:45:10.714Z,23.20
2018-06-10T03:47:38.933Z,25.77
2018-06-10T03:50:07.226Z,29.07
2018-06-10T03:52:35.497Z,25.80
2018-06-10T03:55:03.722Z,24.87
2018-06-10T03:57:31.925Z,27.83
2018-06-10T04:00:00.122Z,27.93
2018-06-10T04:02:28.624Z,25.90
2018-06-10T04:04:56.867Z,26.77
2018-06-10T04:07:25.069Z,23.97
2018-06-10T04:09:53.243Z,26.20
2018-06-10T04:12:21.437Z,21.73
2018-06-10T04:14:49.701Z,24.73
2018-06-10T04:17:17.914Z,26.67
2018-06-10T04:19:46.113Z,27.10
2018-06-10T04:22:14.272Z,21.67
2018-06-10T04:24:42.486Z,21.90
2018-06-10T04:27:10.675Z,22.40
2018-06-10T04:29:38.967Z,21.47
2018-06-10T04:32:07.479Z,21.73
2018-06-10T04:34:35.677Z,20.47
2018-06-10T04:37:03.858Z,22.50
2018-06-10T04:39:32.417Z,22.90
2018-06-10T04:42:00.667Z,22.00
2018-06-10T04:44:28.957Z,25.10
2018-06-10T04:46:57.140Z,21.07
2018-06-10T04:49:25.355Z,20.83
2018-06-10T04:51:53.588Z,19.27
2018-06-10T04:54:22.089Z,25.63
2018-06-10T04:56:50.334Z,21.40
2018-06-10T04:59:21.457Z,21.10
2018-06-10T05:01:50.419Z,24.17
2018-06-10T05:04:18.626Z,18.67
2018-06-10T05:06:47.183Z,18.50
2018-06-10T05:09:15.415Z,19.23
2018-06-10T05:11:43.952Z,17.00
2018-06-10T05:14:12.199Z,17.57
2018-06-10T05:16:40.405Z,17.83
2018-06-10T05:19:08.584Z,19.27
2018-06-10T05:21:37.116Z,19.70
2018-06-10T05:24:05.289Z,17.27
2018-06-10T05:26:33.522Z,20.77
2018-06-10T05:29:01.749Z,16.30
2018-06-10T05:31:30.011Z,19.10
2018-06-10T05:33:58.244Z,17.90
2018-06-10T05:36:26.440Z,22.63
2018-06-10T05:38:54.628Z,18.67
2018-06-10T05:41:22.814Z,16.90
2018-06-10T05:43:50.983Z,20.90
2018-06-10T05:46:19.182Z,17.03
2018-06-10T05:48:47.386Z,22.40
2018-06-10T05:51:15.672Z,21.03
2018-06-10T05:53:43.867Z,20.23
2018-06-10T05:56:12.125Z,34.40
2018-06-10T05:58:40.401Z,18.30
2018-06-10T06:01:08.888Z,21.97
2018-06-10T06:03:37.400Z,26.53
2018-06-10T06:06:05.619Z,21.20
2018-06-10T06:08:33.852Z,20.60
2018-06-10T06:11:02.145Z,18.73
2018-06-10T06:13:30.432Z,22.10
2018-06-10T06:15:58.685Z,18.77
2018-06-10T06:18:26.922Z,19.73
2018-06-10T06:20:55.114Z,18.97
2018-06-10T06:23:23.337Z,18.53
2018-06-10T06:25:51.545Z,24.03
2018-06-10T06:28:19.859Z,17.37
2018-06-10T06:30:48.135Z,20.67
2018-06-10T06:33:16.757Z,21.63
2018-06-10T06:35:45.200Z,20.50
2018-06-10T06:38:13.430Z,16.40
2018-06-10T06:40:41.629Z,21.10
2018-06-10T06:43:09.835Z,17.70
2018-06-10T06:45:38.071Z,12.50
2018-06-10T06:48:06.299Z,19.90
2018-06-10T06:50:34.538Z,16.90
2018-06-10T06:53:02.741Z,17.00
2018-06-10T06:55:30.928Z,18.80
2018-06-10T06:57:59.138Z,15.20
2018-06-10T07:00:27.431Z,20.27
2018-06-10T07:02:56.056Z,15.80
2018-06-10T07:05:24.273Z,17.97
2018-06-10T07:07:52.513Z,18.00
2018-06-10T07:10:20.737Z,16.20
2018-06-10T07:12:49.296Z,17.03
2018-06-10T07:15:17.562Z,17.63
2018-06-10T07:17:45.775Z,15.97
2018-06-10T07:20:14.023Z,19.10
2018-06-10T07:22:42.261Z,19.13
2018-06-10T07:25:10.434Z,24.40
2018-06-10T07:27:38.956Z,19.20
2018-06-10T07:30:07.258Z,14.30
2018-06-10T07:32:35.830Z,17.40
2018-06-10T07:35:04.449Z,18.67
2018-06-10T07:37:32.976Z,13.37
2018-06-10T07:40:01.193Z,17.83
2018-06-10T07:42:29.425Z,19.03
2018-06-10T07:44:57.896Z,15.10
2018-06-10T07:47:26.097Z,20.10
2018-06-10T07:49:54.327Z,18.20
2018-06-10T07:52:22.610Z,17.30
2018-06-10T07:54:50.811Z,15.00
2018-06-10T07:57:18.970Z,16.63
2018-06-10T07:59:47.159Z,17.93
2018-06-10T08:02:15.353Z,11.67
2018-06-10T08:04:43.615Z,11.30
2018-06-10T08:07:12.549Z,18.57
2018-06-10T08:09:40.728Z,14.00
2018-06-10T08:12:08.909Z,9.70
2018-06-10T08:14:37.106Z,14.47
2018-06-10T08:17:05.296Z,13.20
2018-06-10T08:19:33.533Z,9.87
2018-06-10T08:22:01.744Z,9.17
2018-06-10T08:24:29.958Z,9.50
2018-06-10T08:26:58.180Z,11.50
2018-06-10T08:29:26.378Z,15.73
2018-06-10T08:31:54.654Z,16.20
2018-06-10T08:34:22.911Z,14.83
2018-06-10T08:36:51.155Z,14.27
2018-06-10T08:39:19.354Z,15.93
2018-06-10T08:41:47.606Z,21.00
2018-06-10T08:44:15.851Z,11.10
2018-06-10T08:46:44.388Z,14.00
2018-06-10T08:49:12.584Z,12.57
2018-06-10T08:51:41.210Z,17.93
2018-06-10T08:54:09.449Z,11.40
2018-06-10T08:56:37.691Z,11.27
2018-06-10T08:59:05.907Z,9.90
2018-06-10T09:01:34.162Z,12.77
2018-06-10T09:04:02.413Z,11.07
2018-06-10T09:06:30.617Z,13.70
2018-06-10T09:08:58.885Z,23.67
2018-06-10T09:11:27.128Z,11.50
2018-06-10T09:13:55.332Z,11.53
2018-06-10T09:16:23.631Z,12.27
2018-06-10T09:18:52.168Z,14.27
2018-06-10T09:21:20.331Z,11.87
2018-06-10T09:23:48.607Z,22.17
2018-06-10T09:26:16.859Z,17.50
2018-06-10T09:28:45.184Z,11.70
2018-06-10T09:31:13.488Z,16.80
2018-06-10T09:33:41.718Z,14.40
2018-06-10T09:36:09.960Z,10.90
2018-06-10T09:38:38.173Z,16.93
2018-06-10T09:41:06.374Z,12.33
2018-06-10T09:43:34.615Z,14.30
2018-06-10T09:46:02.778Z,12.90
2018-06-10T09:48:31.036Z,12.33
2018-06-10T09:50:59.520Z,14.10
2018-06-10T09:53:28.024Z,13.83
2018-06-10T09:55:56.264Z,15.40
2018-06-10T09:58:24.458Z,19.30
2018-06-10T10:00:53.065Z,24.80
2018-06-10T10:03:21.283Z,13.00
2018-06-10T10:05:49.529Z,13.27
2018-06-10T10:08:17.736Z,14.40
2018-06-10T10:10:46.217Z,13.23
2018-06-10T10:13:14.456Z,11.70
2018-06-10T10:15:42.716Z,20.50
2018-06-10T10:18:10.917Z,15.40
2018-06-10T10:20:39.158Z,13.47
2018-06-10T10:23:07.378Z,16.60
2018-06-10T10:25:36.004Z,12.40
2018-06-10T10:28:04.296Z,11.10
2018-06-10T10:30:32.465Z,12.27
2018-06-10T10:33:00.660Z,16.10
2018-06-10T10:35:28.885Z,15.17
2018-06-10T10:37:57.142Z,15.57
2018-06-10T10:40:25.372Z,25.23
2018-06-10T10:42:53.622Z,11.73
2018-06-10T10:45:22.106Z,15.33
2018-06-10T10:47:50.397Z,12.93
2018-06-10T10:50:18.657Z,12.50
2018-06-10T10:52:46.900Z,13.50
2018-06-10T10:55:15.162Z,17.60
2018-06-10T10:57:43.357Z,14.50
2018-06-10T11:00:11.571Z,15.10
2018-06-10T11:02:39.832Z,17.80
2018-06-10T11:05:07.999Z,14.33
2018-06-10T11:07:36.373Z,18.83
2018-06-10T11:10:04.577Z,12.90
2018-06-10T11:12:33.032Z,14.17
2018-06-10T11:15:01.334Z,11.20
2018-06-10T11:17:29.565Z,12.47
2018-06-10T11:19:57.767Z,16.03
2018-06-10T11:22:26.717Z,15.00
2018-06-10T11:24:54.960Z,16.23
2018-06-10T11:27:23.275Z,16.43
2018-06-10T11:29:51.432Z,13.20
2018-06-10T11:32:26.341Z,15.97
2018-06-10T11:34:54.531Z,17.13
2018-06-10T11:37:22.715Z,15.57
2018-06-10T11:39:51.081Z,19.13
2018-06-10T11:42:19.297Z,19.87
2018-06-10T11:44:47.449Z,16.40
2018-06-10T11:47:15.624Z,11.20
2018-06-10T11:49:43.780Z,14.73
2018-06-10T11:52:12.036Z,14.60
2018-06-10T11:54:40.249Z,14.07
2018-06-10T11:57:08.456Z,15.63
2018-06-10T11:59:36.666Z,13.00
2018-06-10T12:02:04.839Z,17.83
2018-06-10T12:04:33.057Z,20.93
2018-06-10T12:07:01.338Z,18.90
2018-06-10T12:09:29.575Z,18.93
2018-06-10T12:11:57.780Z,21.03
2018-06-10T12:14:25.954Z,18.67
2018-06-10T12:16:54.147Z,23.57
2018-06-10T12:19:22.339Z,14.40
2018-06-10T12:21:50.563Z,20.03
2018-06-10T12:24:18.775Z,18.50
2018-06-10T12:26:47.036Z,22.50
2018-06-10T12:29:15.236Z,33.97
2018-06-10T12:31:43.477Z,23.03
2018-06-10T12:34:11.939Z,21.00
2018-06-10T12:36:40.169Z,21.47
2018-06-10T12:39:08.878Z,20.70
2018-06-10T12:41:37.389Z,18.03
2018-06-10T12:44:05.718Z,18.93
2018-06-10T12:46:33.903Z,22.00
2018-06-10T12:49:02.195Z,14.07
2018-06-10T12:51:30.401Z,17.00
2018-06-10T12:53:58.625Z,14.33
2018-06-10T12:56:26.905Z,16.70
2018-06-10T12:58:55.100Z,11.40
2018-06-10T13:01:23.292Z,24.80
2018-06-10T13:03:51.521Z,19.77
2018-06-10T13:06:19.814Z,15.10
2018-06-10T13:08:48.341Z,21.83
2018-06-10T13:11:16.574Z,14.70
2018-06-10T13:13:44.829Z,27.83
2018-06-10T13:16:13.044Z,19.17
2018-06-10T13:18:41.465Z,20.83
2018-06-10T13:21:09.847Z,17.53
2018-06-10T13:23:38.153Z,21.33
2018-06-10T13:26:06.364Z,21.77
2018-06-10T13:28:34.607Z,24.90
2018-06-10T13:31:02.802Z,20.10
2018-06-10T13:33:31.300Z,23.77
2018-06-10T13:35:59.892Z,14.17
2018-06-10T13:38:28.179Z,14.10
2018-06-10T13:40:56.414Z,16.30
2018-06-10T13:43:24.652Z,23.23
2018-06-10T13:45:52.921Z,21.93
2018-06-10T13:48:21.202Z,20.13
2018-06-10T13:50:49.454Z,18.33
2018-06-10T13:53:17.753Z,20.30
2018-06-10T13:55:46.192Z,15.63
2018-06-10T13:58:14.731Z,18.70
2018-06-10T14:00:43.014Z,16.40
2018-06-10T14:03:11.189Z,15.60
2018-06-10T14:05:39.401Z,15.97
2018-06-10T14:08:07.627Z,24.13
2018-06-10T14:10:42.447Z,14.07
2018-06-10T14:13:10.669Z,26.83
2018-06-10T14:15:38.918Z,19.70
2018-06-10T14:18:07.372Z,12.97
2018-06-10T14:23:10.128Z,16.00
2018-06-10T14:25:38.319Z,19.33
2018-06-10T14:28:07.423Z,16.93
2018-06-10T14:30:35.668Z,27.17
2018-06-10T14:33:03.871Z,17.30
2018-06-10T14:35:32.018Z,18.13
2018-06-10T14:38:00.325Z,16.43
2018-06-10T14:40:28.476Z,16.53
2018-06-10T14:42:56.696Z,17.70
2018-06-10T14:45:24.928Z,22.57
2018-06-10T14:47:53.178Z,16.53
2018-06-10T14:50:21.411Z,21.10
2018-06-10T14:52:49.615Z,18.40
2018-06-10T14:55:17.839Z,23.83
2018-06-10T14:57:46.444Z,25.37
2018-06-10T15:00:14.757Z,21.83
2018-06-10T15:02:42.970Z,21.00
2018-06-10T15:05:11.175Z,20.83
2018-06-10T15:07:39.407Z,14.80
2018-06-10T15:10:07.674Z,22.40
2018-06-10T15:12:35.914Z,20.60
2018-06-10T15:15:04.176Z,24.83
2018-06-10T15:17:32.403Z,20.60
2018-06-10T15:20:00.629Z,39.33
2018-06-10T15:22:28.828Z,21.63
2018-06-10T15:24:57.045Z,30.57
2018-06-10T15:27:25.211Z,24.60
2018-06-10T15:29:53.451Z,18.00
2018-06-10T15:32:21.748Z,34.50
2018-06-10T15:34:49.996Z,30.90
2018-06-10T15:37:18.201Z,23.93
2018-06-10T15:39:46.464Z,17.10
2018-06-10T15:42:15.036Z,17.43
2018-06-10T15:44:43.996Z,20.67
2018-06-10T15:47:12.261Z,20.23
2018-06-10T15:49:40.465Z,19.70
2018-06-10T15:52:08.652Z,19.80
2018-06-10T15:54:36.859Z,14.77
2018-06-10T15:57:05.302Z,21.63
2018-06-10T15:59:33.498Z,16.93
2018-06-10T16:02:02.140Z,14.73
2018-06-10T16:04:30.401Z,16.20
2018-06-10T16:06:58.632Z,15.53
2018-06-10T16:09:26.921Z,18.70
2018-06-10T16:11:55.140Z,20.67
2018-06-10T16:14:23.396Z,21.20
2018-06-10T16:16:51.643Z,24.40
2018-06-10T16:19:20.204Z,21.00
2018-06-10T16:21:48.470Z,18.43
2018-06-10T16:24:16.681Z,18.97
2018-06-10T16:26:44.940Z,17.90
2018-06-10T16:29:13.144Z,15.03
2018-06-10T16:31:41.360Z,17.53
2018-06-10T16:34:09.597Z,16.80
2018-06-10T16:36:37.855Z,21.33
2018-06-10T16:39:09.458Z,19.30
2018-06-10T16:41:37.700Z,17.00
2018-06-10T16:44:05.932Z,18.80
2018-06-10T16:46:34.386Z,18.07
2018-06-10T16:49:02.666Z,17.53
2018-06-10T16:51:30.915Z,24.50
2018-06-10T16:53:59.140Z,19.03
2018-06-10T16:56:27.390Z,16.70
2018-06-10T16:58:55.576Z,17.80
2018-06-10T17:01:23.762Z,20.10
2018-06-10T17:03:51.987Z,22.80
2018-06-10T17:06:20.184Z,27.97
2018-06-10T17:08:48.381Z,25.20
2018-06-10T17:11:16.676Z,17.93
2018-06-10T17:13:44.887Z,18.97
2018-06-10T17:16:13.234Z,23.47
2018-06-10T17:18:41.442Z,19.10
2018-06-10T17:21:09.657Z,21.80
2018-06-10T17:23:37.912Z,19.47
2018-06-10T17:26:06.500Z,22.37
2018-06-10T17:28:34.759Z,20.90
2018-06-10T17:31:03.032Z,23.13
2018-06-10T17:33:31.322Z,16.93
2018-06-10T17:35:59.566Z,25.57
2018-06-10T17:38:27.773Z,24.43
2018-06-10T17:40:56.070Z,27.97
2018-06-10T17:43:24.637Z,24.53
2018-06-10T17:45:52.953Z,16.87
2018-06-10T17:48:22.000Z,23.80
2018-06-10T17:50:50.635Z,19.37
2018-06-10T17:53:18.838Z,19.53
2018-06-10T17:55:47.228Z,20.43
2018-06-10T17:58:15.446Z,19.33
2018-06-10T18:00:43.708Z,23.33
2018-06-10T18:03:11.965Z,18.00
2018-06-10T18:05:40.221Z,15.30
2018-06-10T18:08:08.419Z,19.40
2018-06-10T18:10:36.778Z,15.40
2018-06-10T18:13:05.011Z,18.77
2018-06-10T18:15:33.259Z,17.73
2018-06-10T18:18:01.473Z,18.23
2018-06-10T18:20:29.669Z,18.80
2018-06-10T18:22:57.912Z,25.17
2018-06-10T18:25:26.085Z,16.50
2018-06-10T18:27:54.345Z,13.60
2018-06-10T18:30:22.539Z,24.33
2018-06-10T18:32:50.749Z,20.43
2018-06-10T18:35:18.946Z,23.87
2018-06-10T18:37:47.201Z,17.67
2018-06-10T18:40:15.407Z,15.87
2018-06-10T18:42:43.701Z,19.50
2018-06-10T18:45:11.933Z,15.77
2018-06-10T18:47:40.373Z,24.37
2018-06-10T18:50:08.651Z,18.03
2018-06-10T18:52:36.884Z,20.60
2018-06-10T18:55:05.118Z,22.63
2018-06-10T18:57:33.316Z,18.53
2018-06-10T19:00:01.505Z,21.03
2018-06-10T19:02:29.736Z,20.40
2018-06-10T19:04:58.013Z,22.63
2018-06-10T19:07:26.561Z,20.07
2018-06-10T19:09:54.703Z,23.53
2018-06-10T19:12:22.912Z,28.93
2018-06-10T19:14:51.154Z,28.57
2018-06-10T19:17:19.406Z,24.37
2018-06-10T19:19:47.609Z,33.30
2018-06-10T19:22:15.776Z,28.20
2018-06-10T19:24:43.968Z,25.40
2018-06-10T19:27:12.129Z,30.47
2018-06-10T19:29:40.351Z,31.87
2018-06-10T19:32:08.572Z,29.87
2018-06-10T19:34:36.871Z,28.90
2018-06-10T19:37:06.397Z,40.80
2018-06-10T19:39:34.586Z,42.83
2018-06-10T19:42:02.867Z,29.50
2018-06-10T19:44:31.092Z,32.33
2018-06-10T19:46:59.313Z,30.60
2018-06-10T19:49:27.554Z,23.03
2018-06-10T19:51:55.829Z,22.53
2018-06-10T19:54:23.985Z,23.73
2018-06-10T19:56:52.248Z,27.90
2018-06-10T19:59:20.432Z,22.37
2018-06-10T20:01:48.799Z,27.87
2018-06-10T20:04:16.967Z,23.17
2018-06-10T20:06:45.180Z,25.03
2018-06-10T20:09:13.432Z,22.97
2018-06-10T20:11:41.619Z,20.63
2018-06-10T20:14:09.801Z,23.50
2018-06-10T20:16:38.058Z,22.63
2018-06-10T20:19:06.284Z,24.03
2018-06-10T20:21:34.617Z,23.33
2018-06-10T20:24:02.852Z,22.53
2018-06-10T20:26:31.505Z,24.67
2018-06-10T20:28:59.936Z,22.53
2018-06-10T20:31:28.538Z,22.30
2018-06-10T20:33:56.757Z,25.33
2018-06-10T20:36:25.077Z,47.53
2018-06-10T20:38:53.243Z,40.60
2018-06-10T20:41:21.557Z,26.10
2018-06-10T20:43:49.810Z,21.77
2018-06-10T20:46:17.956Z,23.30
2018-06-10T20:48:46.136Z,26.67
2018-06-10T20:51:14.618Z,29.70
2018-06-10T20:53:42.784Z,20.03
2018-06-10T20:56:10.988Z,22.73
2018-06-10T20:58:39.237Z,19.87
2018-06-10T21:01:07.488Z,21.23
2018-06-10T21:03:35.754Z,22.50
2018-06-10T21:06:03.929Z,15.30
2018-06-10T21:08:32.204Z,20.03
2018-06-10T21:11:00.520Z,29.60
2018-06-10T21:13:28.766Z,18.50
2018-06-10T21:15:57.039Z,15.60
2018-06-10T21:18:25.244Z,20.23
2018-06-10T21:20:53.416Z,23.90
2018-06-10T21:23:21.645Z,19.63
2018-06-10T21:25:49.841Z,23.43
2018-06-10T21:28:18.033Z,19.80
2018-06-10T21:30:46.252Z,15.17
2018-06-10T21:33:14.551Z,17.57
2018-06-10T21:35:42.788Z,16.20
2018-06-10T21:38:11.026Z,15.93
2018-06-10T21:40:39.233Z,15.57
2018-06-10T21:43:07.514Z,17.67
2018-06-10T21:45:35.758Z,16.07
2018-06-10T21:48:04.372Z,16.90
2018-06-10T21:50:32.629Z,17.20
2018-06-10T21:53:01.165Z,15.73
2018-06-10T21:55:29.393Z,18.93
2018-06-10T21:57:57.584Z,14.90
2018-06-10T22:00:27.581Z,13.67
2018-06-10T22:02:55.810Z,13.10
2018-06-10T22:05:24.115Z,14.77
2018-06-10T22:07:52.390Z,13.40
2018-06-10T22:10:20.666Z,11.80
2018-06-10T22:12:48.894Z,11.67
2018-06-10T22:15:17.072Z,10.60
2018-06-10T22:17:45.365Z,12.20
2018-06-10T22:20:13.609Z,9.73
2018-06-10T22:22:41.816Z,12.60
2018-06-10T22:25:10.100Z,12.97
2018-06-10T22:27:38.458Z,11.53
2018-06-10T22:30:06.657Z,10.43
2018-06-10T22:32:35.246Z,12.03
2018-06-10T22:35:03.522Z,11.13
2018-06-10T22:37:31.742Z,12.67
2018-06-10T22:40:00.037Z,11.97
2018-06-10T22:42:35.047Z,12.63
2018-06-10T22:45:03.646Z,13.10
2018-06-10T22:47:31.908Z,10.93
2018-06-10T22:50:00.107Z,17.57
2018-06-10T22:52:28.357Z,19.40
2018-06-10T22:54:56.602Z,12.50
2018-06-10T22:57:24.837Z,19.13
2018-06-10T22:59:53.024Z,11.53
2018-06-10T23:02:21.509Z,12.10
2018-06-10T23:04:49.720Z,15.23
2018-06-10T23:07:18.188Z,10.80
2018-06-10T23:09:46.769Z,12.13
2018-06-10T23:12:14.954Z,14.57
2018-06-10T23:14:43.202Z,19.27
2018-06-10T23:17:11.447Z,21.20
2018-06-10T23:19:39.643Z,14.33
2018-06-10T23:22:07.932Z,13.30
2018-06-10T23:24:36.200Z,18.40
2018-06-10T23:27:04.418Z,34.50
2018-06-10T23:29:32.628Z,15.07
2018-06-10T23:32:00.855Z,14.10
2018-06-10T23:34:29.438Z,15.60
2018-06-10T23:36:57.669Z,15.37
2018-06-10T23:39:25.892Z,16.47
2018-06-10T23:41:54.080Z,13.80
2018-06-10T23:44:22.255Z,12.50
2018-06-10T23:46:50.490Z,13.40
2018-06-10T23:49:18.768Z,17.43
2018-06-10T23:51:47.059Z,14.17
2018-06-10T23:54:15.517Z,17.03
2018-06-10T23:56:43.796Z,14.03
2018-06-10T23:59:12.047Z,23.07
